Terminal Aerodrome Forecast
Issued by NWS Sterling, VA

Home | Current Version | Previous Version | Text Only | Print | Product List | Glossary On
Versions: 1 2 3 4 5 6 7 8 9 10 11 12 13 14 15 16 17 18 19 20 21 22 23 24 25 26
000
FTUS41 KLWX 260900 AAB
TAFDCA
TAF AMD
KDCA 260902Z 2609/2706 06008KT 6SM -RA OVC050
     FM261200 07011KT 6SM -RASN OVC008
     FM262100 03011G21KT 6SM -RASN OVC008
     FM270200 01010KT 6SM -SN OVC008=

USA.gov is the U.S. government's official web portal to all federal, state and local government web resources and services.